createdAt,value
2019-03-10T00:01:02.538Z,95.60
2019-03-10T00:03:47.589Z,95.10
2019-03-10T00:06:33.924Z,94.50
2019-03-10T00:09:19.182Z,94.70
2019-03-10T00:12:04.534Z,94.30
2019-03-10T00:14:50.006Z,92.60
2019-03-10T00:17:35.067Z,91.60
2019-03-10T00:20:20.336Z,91.10
2019-03-10T00:23:07.074Z,90.70
2019-03-10T00:25:52.284Z,89.60
2019-03-10T00:28:37.670Z,88.80
2019-03-10T00:31:22.870Z,89.10
2019-03-10T00:34:08.158Z,88.30
2019-03-10T00:36:54.132Z,89.00
2019-03-10T00:39:59.095Z,87.70
2019-03-10T00:43:03.160Z,87.60
2019-03-10T00:46:14.761Z,86.90
2019-03-10T00:49:20.087Z,87.50
2019-03-10T00:52:08.979Z,87.40
2019-03-10T00:54:54.041Z,86.10
2019-03-10T00:57:39.126Z,85.70
2019-03-10T01:00:24.809Z,85.90
2019-03-10T01:03:11.180Z,85.40
2019-03-10T01:05:58.240Z,85.30
2019-03-10T01:08:43.633Z,84.70
2019-03-10T01:11:28.672Z,83.90
2019-03-10T01:14:14.640Z,83.50
2019-03-10T01:17:03.238Z,83.30
2019-03-10T01:19:49.017Z,83.80
2019-03-10T01:22:34.288Z,83.60
2019-03-10T01:25:19.190Z,84.10
2019-03-10T01:28:05.246Z,84.30
2019-03-10T01:31:03.437Z,83.80
2019-03-10T01:34:15.920Z,82.50
2019-03-10T01:37:00.765Z,82.60
2019-03-10T01:39:45.842Z,82.40
2019-03-10T01:42:30.856Z,82.40
2019-03-10T01:45:16.268Z,82.60
2019-03-10T01:48:02.732Z,82.70
2019-03-10T01:50:48.587Z,83.10
2019-03-10T01:53:33.810Z,83.00
2019-03-10T01:56:19.045Z,82.90
2019-03-10T01:59:04.783Z,82.50
2019-03-10T02:01:50.350Z,81.90
2019-03-10T02:04:35.315Z,81.80
2019-03-10T02:07:22.202Z,81.80
2019-03-10T02:10:09.616Z,81.90
2019-03-10T02:12:54.845Z,81.80
2019-03-10T02:15:39.882Z,82.10
2019-03-10T02:18:25.093Z,82.40
2019-03-10T02:21:10.418Z,81.80
2019-03-10T02:23:56.474Z,82.40
2019-03-10T02:26:41.661Z,82.60
2019-03-10T02:29:26.749Z,82.40
2019-03-10T02:32:12.150Z,82.70
2019-03-10T02:34:57.874Z,82.30
2019-03-10T02:37:43.268Z,82.00
2019-03-10T02:40:28.445Z,81.90
2019-03-10T02:43:13.991Z,81.70
2019-03-10T02:46:00.445Z,81.60
2019-03-10T02:48:47.195Z,80.80
2019-03-10T02:51:33.051Z,80.60
2019-03-10T02:54:18.111Z,80.30
2019-03-10T02:57:03.162Z,80.20
2019-03-10T02:59:48.031Z,80.50
2019-03-10T03:02:32.937Z,80.00
2019-03-10T03:05:18.270Z,80.00
2019-03-10T03:08:03.623Z,80.00
2019-03-10T03:10:48.477Z,80.20
2019-03-10T03:13:33.595Z,79.90
2019-03-10T03:16:18.778Z,79.40
2019-03-10T03:19:03.868Z,79.70
2019-03-10T03:21:51.256Z,79.30
2019-03-10T03:24:36.363Z,79.20
2019-03-10T03:27:21.624Z,79.30
2019-03-10T03:30:13.254Z,79.60
2019-03-10T03:32:58.892Z,79.20
2019-03-10T03:35:53.064Z,79.30
2019-03-10T03:38:41.950Z,79.30
2019-03-10T03:41:27.110Z,79.50
2019-03-10T03:44:12.355Z,79.30
2019-03-10T03:46:57.641Z,79.00
2019-03-10T03:49:42.867Z,79.00
2019-03-10T03:52:28.369Z,79.00
2019-03-10T03:55:14.202Z,79.60
2019-03-10T03:57:59.265Z,79.50
2019-03-10T04:00:46.249Z,79.30
2019-03-10T04:03:31.328Z,79.20
2019-03-10T04:06:16.670Z,79.30
2019-03-10T04:09:01.892Z,78.80
2019-03-10T04:11:47.385Z,78.30
2019-03-10T04:14:32.616Z,78.40
2019-03-10T04:17:17.523Z,78.30
2019-03-10T04:20:05.184Z,77.60
2019-03-10T04:22:50.098Z,77.50
2019-03-10T04:25:35.098Z,77.20
2019-03-10T04:28:20.336Z,77.30
2019-03-10T04:31:06.090Z,77.10
2019-03-10T04:33:51.389Z,77.10
2019-03-10T04:36:36.524Z,77.10
2019-03-10T04:39:21.484Z,77.20
2019-03-10T04:42:06.741Z,77.30
2019-03-10T04:44:51.494Z,77.60
2019-03-10T04:47:36.476Z,77.80
2019-03-10T04:50:21.729Z,78.00
2019-03-10T04:53:07.057Z,78.50
2019-03-10T04:55:54.369Z,78.80
2019-03-10T04:58:41.427Z,79.20
2019-03-10T05:01:26.580Z,79.60
2019-03-10T05:04:12.067Z,79.90
2019-03-10T05:06:58.044Z,80.20
2019-03-10T05:09:42.914Z,80.20
2019-03-10T05:12:28.180Z,80.90
2019-03-10T05:15:14.429Z,81.00
2019-03-10T05:17:59.197Z,81.10
2019-03-10T05:20:44.695Z,81.40
2019-03-10T05:23:33.466Z,81.50
2019-03-10T05:26:18.770Z,81.60
2019-03-10T05:29:04.023Z,81.70
2019-03-10T05:31:49.576Z,81.20
2019-03-10T05:34:36.004Z,81.20
2019-03-10T05:37:21.010Z,81.30
2019-03-10T05:40:07.411Z,81.30
2019-03-10T05:42:53.134Z,81.00
2019-03-10T05:45:37.968Z,80.60
2019-03-10T05:48:23.392Z,80.40
2019-03-10T05:51:08.589Z,80.00
2019-03-10T05:53:54.070Z,80.00
2019-03-10T05:56:39.491Z,79.70
2019-03-10T05:59:24.770Z,79.60
2019-03-10T06:02:30.086Z,79.70
2019-03-10T06:05:15.204Z,79.30
2019-03-10T06:08:00.417Z,78.70
2019-03-10T06:10:45.475Z,78.90
2019-03-10T06:13:31.563Z,78.60
2019-03-10T06:16:16.867Z,78.70
2019-03-10T06:19:01.801Z,78.10
2019-03-10T06:21:47.243Z,78.00
2019-03-10T06:24:32.548Z,77.70
2019-03-10T06:27:17.532Z,77.00
2019-03-10T06:30:09.755Z,76.50
2019-03-10T06:32:54.821Z,76.80
2019-03-10T06:35:39.541Z,76.20
2019-03-10T06:38:24.863Z,76.00
2019-03-10T06:41:10.261Z,75.50
2019-03-10T06:43:55.342Z,75.00
2019-03-10T06:46:42.892Z,75.80
2019-03-10T06:49:27.987Z,75.20
2019-03-10T06:52:13.384Z,74.90
2019-03-10T06:54:58.620Z,74.20
2019-03-10T06:57:43.750Z,74.40
2019-03-10T07:00:29.179Z,74.20
2019-03-10T07:03:14.478Z,74.40
2019-03-10T07:06:01.315Z,74.40
2019-03-10T07:08:47.479Z,73.90
2019-03-10T07:11:32.787Z,73.90
2019-03-10T07:14:19.081Z,73.40
2019-03-10T07:17:04.251Z,73.20
2019-03-10T07:19:49.377Z,73.60
2019-03-10T07:22:34.552Z,73.60
2019-03-10T07:25:19.766Z,73.70
2019-03-10T07:28:12.470Z,73.30
2019-03-10T07:31:11.458Z,72.40
2019-03-10T07:33:58.849Z,72.40
2019-03-10T07:37:02.454Z,72.20
2019-03-10T07:40:04.730Z,72.10
2019-03-10T07:42:51.842Z,72.30
2019-03-10T07:45:44.578Z,72.50
2019-03-10T07:48:44.655Z,72.20
2019-03-10T07:51:32.147Z,72.20
2019-03-10T07:54:21.729Z,72.20
2019-03-10T07:57:14.765Z,72.00
2019-03-10T08:00:02.467Z,71.80
2019-03-10T08:03:08.143Z,72.10
2019-03-10T08:06:08.142Z,72.30
2019-03-10T08:09:10.190Z,71.70
2019-03-10T08:12:06.300Z,71.40
2019-03-10T08:14:53.469Z,71.70
2019-03-10T08:17:49.422Z,71.20
2019-03-10T08:20:53.859Z,70.70
2019-03-10T08:23:49.855Z,70.70
2019-03-10T08:26:39.628Z,69.90
2019-03-10T08:29:26.659Z,70.00
2019-03-10T08:32:13.796Z,69.50
2019-03-10T08:35:03.507Z,68.60
2019-03-10T08:38:07.432Z,68.30
2019-03-10T08:41:10.793Z,68.30
2019-03-10T08:44:16.042Z,68.90
2019-03-10T08:47:06.957Z,68.90
2019-03-10T08:49:54.249Z,68.70
2019-03-10T08:52:44.701Z,68.60
2019-03-10T08:55:54.228Z,68.60
2019-03-10T08:58:56.258Z,68.90
2019-03-10T09:01:46.500Z,68.20
2019-03-10T09:04:36.027Z,68.50
2019-03-10T09:07:25.743Z,68.90
2019-03-10T09:10:18.722Z,68.40
2019-03-10T09:13:08.962Z,68.40
2019-03-10T09:19:19.934Z,67.20
2019-03-10T09:22:07.158Z,67.80
2019-03-10T09:24:55.419Z,68.10
2019-03-10T09:27:45.579Z,68.30
2019-03-10T09:30:40.088Z,68.70
2019-03-10T09:33:27.743Z,68.50
2019-03-10T09:36:17.013Z,67.80
2019-03-10T09:39:10.361Z,67.40
2019-03-10T09:42:12.807Z,67.60
2019-03-10T09:45:05.973Z,68.10
2019-03-10T09:47:52.737Z,67.50
2019-03-10T09:50:39.586Z,68.20
2019-03-10T09:53:29.586Z,68.00
2019-03-10T09:56:32.996Z,67.10
2019-03-10T09:59:38.328Z,65.80
2019-03-10T10:02:43.432Z,65.80
2019-03-10T10:05:32.798Z,66.10
2019-03-10T10:08:22.444Z,66.60
2019-03-10T10:11:09.543Z,64.80
2019-03-10T10:14:02.351Z,63.70
2019-03-10T10:16:52.798Z,63.10
2019-03-10T10:19:39.812Z,62.70
2019-03-10T10:22:29.094Z,63.60
2019-03-10T10:25:24.536Z,63.80
2019-03-10T10:28:21.545Z,63.20
2019-03-10T10:31:11.260Z,61.70
2019-03-10T10:37:05.335Z,60.50
2019-03-10T10:43:13.685Z,59.40
2019-03-10T10:46:01.016Z,59.60
2019-03-10T10:48:50.737Z,60.00
2019-03-10T10:51:37.937Z,60.60
2019-03-10T10:54:27.753Z,60.60
2019-03-10T10:57:15.206Z,60.00
2019-03-10T11:00:02.553Z,59.20
2019-03-10T11:02:49.384Z,59.20
2019-03-10T11:05:42.655Z,59.40
2019-03-10T11:08:33.470Z,59.90
2019-03-10T11:11:26.326Z,59.10
2019-03-10T11:14:30.090Z,59.20
2019-03-10T11:17:23.067Z,59.00
2019-03-10T11:20:11.586Z,59.70
2019-03-10T11:23:07.497Z,60.40
2019-03-10T11:25:57.275Z,60.80
2019-03-10T11:29:02.764Z,59.80
2019-03-10T11:31:48.552Z,60.20
2019-03-10T11:34:38.432Z,60.50
2019-03-10T11:37:40.487Z,59.20
2019-03-10T11:40:43.993Z,57.30
2019-03-10T11:43:45.959Z,57.00
2019-03-10T11:46:34.965Z,57.00
2019-03-10T11:49:22.375Z,57.10
2019-03-10T11:52:09.451Z,57.20
2019-03-10T11:55:08.686Z,56.80
2019-03-10T11:58:04.671Z,57.30
2019-03-10T12:03:49.154Z,58.30
2019-03-10T12:06:42.319Z,58.40
2019-03-10T12:09:27.830Z,58.80
2019-03-10T12:12:12.743Z,59.30
2019-03-10T12:14:58.259Z,58.50
2019-03-10T12:17:43.189Z,58.70
2019-03-10T12:20:28.067Z,58.80
2019-03-10T12:23:13.356Z,59.30
2019-03-10T12:25:58.657Z,59.50
2019-03-10T12:28:43.877Z,59.30
2019-03-10T12:31:29.163Z,59.20
2019-03-10T12:34:16.449Z,58.80
2019-03-10T12:37:01.168Z,58.90
2019-03-10T12:39:46.640Z,59.10
2019-03-10T12:42:31.738Z,59.00
2019-03-10T12:45:17.217Z,59.00
2019-03-10T12:48:03.364Z,58.70
2019-03-10T12:50:48.509Z,58.20
2019-03-10T12:53:35.741Z,58.50
2019-03-10T12:56:21.056Z,58.10
2019-03-10T12:59:05.978Z,58.10
2019-03-10T13:01:51.120Z,58.00
2019-03-10T13:04:36.540Z,58.70
2019-03-10T13:07:21.710Z,58.90
2019-03-10T13:10:08.277Z,59.70
2019-03-10T13:12:53.571Z,60.30
2019-03-10T13:15:39.776Z,60.40
2019-03-10T13:18:25.114Z,60.60
2019-03-10T13:21:10.171Z,59.80
2019-03-10T13:23:55.466Z,59.50
2019-03-10T13:26:41.667Z,59.20
2019-03-10T13:29:27.211Z,58.60
2019-03-10T13:32:12.590Z,58.20
2019-03-10T13:34:57.764Z,58.20
2019-03-10T13:37:42.972Z,57.50
2019-03-10T13:40:28.446Z,56.60
2019-03-10T13:43:13.819Z,56.00
2019-03-10T13:45:59.141Z,55.40
2019-03-10T13:48:44.173Z,56.00
2019-03-10T13:51:49.316Z,55.10
2019-03-10T13:54:35.538Z,54.40
2019-03-10T13:57:20.754Z,54.10
2019-03-10T14:00:09.428Z,53.80
2019-03-10T14:02:54.533Z,53.30
2019-03-10T14:05:40.128Z,53.00
2019-03-10T14:08:25.148Z,52.70
2019-03-10T14:11:11.403Z,52.90
2019-03-10T14:13:56.285Z,52.70
2019-03-10T14:16:41.281Z,52.90
2019-03-10T14:19:26.638Z,53.30
2019-03-10T14:22:11.834Z,53.70
2019-03-10T14:24:58.585Z,54.00
2019-03-10T14:27:44.706Z,54.70
2019-03-10T14:30:31.213Z,55.30
2019-03-10T14:33:16.517Z,55.80
2019-03-10T14:36:01.738Z,56.20
2019-03-10T14:38:47.035Z,56.50
2019-03-10T14:41:32.324Z,57.30
2019-03-10T14:44:17.724Z,57.50
2019-03-10T14:47:03.204Z,57.70
2019-03-10T14:49:48.584Z,58.10
2019-03-10T14:52:34.952Z,58.50
2019-03-10T14:55:22.982Z,59.00
2019-03-10T14:58:08.836Z,59.20
2019-03-10T15:00:54.217Z,59.60
2019-03-10T15:03:39.585Z,60.00
2019-03-10T15:06:25.369Z,60.10
2019-03-10T15:09:11.314Z,59.90
2019-03-10T15:11:56.487Z,60.30
2019-03-10T15:14:41.933Z,60.40
2019-03-10T15:17:27.313Z,60.70
2019-03-10T15:20:14.617Z,60.80
2019-03-10T15:22:59.574Z,60.60
2019-03-10T15:25:46.477Z,59.80
2019-03-10T15:28:32.147Z,60.50
2019-03-10T15:31:17.330Z,59.90
2019-03-10T15:34:03.176Z,60.40
2019-03-10T15:36:49.749Z,60.30
2019-03-10T15:39:34.859Z,59.80
2019-03-10T15:42:20.533Z,59.80
2019-03-10T15:45:10.950Z,60.10
2019-03-10T15:47:55.866Z,60.20
2019-03-10T15:50:41.100Z,59.90
2019-03-10T15:53:26.185Z,59.80
2019-03-10T15:56:11.221Z,59.80
2019-03-10T15:58:56.438Z,59.90
2019-03-10T16:01:43.133Z,60.00
2019-03-10T16:04:28.282Z,60.30
2019-03-10T16:07:13.657Z,60.50
2019-03-10T16:09:59.898Z,60.40
2019-03-10T16:12:44.950Z,60.90
2019-03-10T16:15:30.669Z,60.10
2019-03-10T16:18:15.827Z,59.80
2019-03-10T16:21:01.129Z,58.90
2019-03-10T16:23:46.467Z,59.00
2019-03-10T16:26:31.627Z,58.90
2019-03-10T16:29:17.747Z,59.10
2019-03-10T16:32:03.047Z,59.10
2019-03-10T16:34:49.218Z,59.10
2019-03-10T16:37:34.522Z,59.40
2019-03-10T16:40:20.830Z,59.80
2019-03-10T16:43:06.211Z,59.80
2019-03-10T16:45:52.007Z,60.20
2019-03-10T16:48:39.058Z,60.50
2019-03-10T16:51:24.533Z,60.90
2019-03-10T16:54:09.310Z,61.40
2019-03-10T16:56:54.732Z,61.80
2019-03-10T16:59:40.152Z,62.20
2019-03-10T17:02:25.387Z,62.60
2019-03-10T17:05:19.928Z,63.30
2019-03-10T17:08:06.600Z,64.60
2019-03-10T17:10:52.333Z,64.80
2019-03-10T17:13:37.307Z,65.50
2019-03-10T17:16:22.641Z,66.20
2019-03-10T17:19:09.516Z,67.40
2019-03-10T17:21:54.371Z,68.20
2019-03-10T17:24:39.817Z,69.10
2019-03-10T17:27:25.202Z,69.50
2019-03-10T17:30:20.873Z,69.30
2019-03-10T17:33:07.651Z,69.70
2019-03-10T17:35:54.111Z,69.70
2019-03-10T17:38:39.171Z,69.50
2019-03-10T17:41:24.142Z,69.40
2019-03-10T17:44:09.455Z,69.50
2019-03-10T17:46:54.546Z,69.50
2019-03-10T17:49:39.918Z,70.30
2019-03-10T17:52:24.951Z,71.30
2019-03-10T17:55:12.537Z,71.70
2019-03-10T17:57:58.830Z,72.20
2019-03-10T18:00:43.999Z,72.80
2019-03-10T18:03:31.647Z,73.00
2019-03-10T18:06:16.534Z,73.40
2019-03-10T18:09:02.035Z,73.60
2019-03-10T18:11:47.385Z,73.80
2019-03-10T18:14:32.523Z,74.20
2019-03-10T18:17:18.154Z,74.10
2019-03-10T18:20:07.249Z,74.30
2019-03-10T18:22:52.337Z,74.50
2019-03-10T18:25:37.601Z,74.70
2019-03-10T18:28:22.810Z,75.00
2019-03-10T18:31:08.353Z,75.30
2019-03-10T18:33:53.446Z,75.40
2019-03-10T18:36:39.116Z,75.50
2019-03-10T18:39:24.324Z,75.90
2019-03-10T18:42:09.889Z,76.10
2019-03-10T18:44:54.903Z,76.10
2019-03-10T18:47:40.116Z,76.10
2019-03-10T18:50:26.921Z,76.20
2019-03-10T18:53:13.427Z,76.10
2019-03-10T18:55:59.093Z,76.40
2019-03-10T18:58:45.437Z,76.50
2019-03-10T19:01:30.776Z,76.80
2019-03-10T19:04:16.031Z,77.00
2019-03-10T19:07:03.441Z,77.00
2019-03-10T19:09:48.902Z,77.40
2019-03-10T19:12:34.027Z,78.10
2019-03-10T19:15:39.483Z,78.00
2019-03-10T19:18:24.775Z,78.50
2019-03-10T19:21:10.276Z,78.60
2019-03-10T19:23:57.139Z,78.70
2019-03-10T19:27:02.575Z,79.10
2019-03-10T19:29:47.842Z,79.80
2019-03-10T19:32:33.130Z,79.90
2019-03-10T19:35:20.285Z,80.30
2019-03-10T19:38:05.690Z,80.60
2019-03-10T19:40:51.072Z,81.00
2019-03-10T19:43:37.281Z,81.20
2019-03-10T19:46:22.525Z,81.80
2019-03-10T19:49:07.624Z,82.30
2019-03-10T19:51:52.910Z,82.80
2019-03-10T19:54:38.023Z,83.30
2019-03-10T19:57:22.822Z,83.50
2019-03-10T20:00:16.358Z,84.30
2019-03-10T20:03:03.701Z,84.10
2019-03-10T20:05:48.773Z,83.60
2019-03-10T20:08:34.122Z,84.60
2019-03-10T20:11:20.360Z,85.30
2019-03-10T20:14:05.487Z,83.80
2019-03-10T20:16:50.418Z,83.80
2019-03-10T20:19:35.653Z,83.60
2019-03-10T20:22:21.919Z,84.10
2019-03-10T20:25:09.734Z,84.50
2019-03-10T20:27:54.739Z,84.70
2019-03-10T20:30:40.126Z,85.50
2019-03-10T20:33:26.484Z,85.10
2019-03-10T20:36:11.647Z,85.30
2019-03-10T20:38:56.927Z,85.60
2019-03-10T20:41:43.604Z,85.50
2019-03-10T20:44:28.639Z,85.20
2019-03-10T20:47:13.766Z,85.80
2019-03-10T20:49:58.949Z,86.20
2019-03-10T20:52:44.420Z,86.40
2019-03-10T20:55:29.753Z,86.40
2019-03-10T20:58:14.889Z,86.80
2019-03-10T21:01:00.731Z,86.80
2019-03-10T21:03:45.914Z,86.90
2019-03-10T21:06:31.418Z,86.80
2019-03-10T21:09:16.720Z,87.10
2019-03-10T21:12:02.108Z,88.10
2019-03-10T21:14:47.347Z,87.80
2019-03-10T21:17:32.674Z,88.10
2019-03-10T21:20:19.856Z,88.50
2019-03-10T21:23:05.843Z,88.30
2019-03-10T21:25:52.771Z,88.30
2019-03-10T21:28:38.071Z,88.70
2019-03-10T21:31:23.389Z,88.20
2019-03-10T21:34:08.774Z,88.00
2019-03-10T21:36:54.419Z,88.10
2019-03-10T21:39:41.639Z,88.70
2019-03-10T21:42:26.909Z,88.80
2019-03-10T21:45:13.447Z,89.50
2019-03-10T21:47:59.661Z,88.80
2019-03-10T21:50:45.892Z,88.90
2019-03-10T21:53:32.212Z,89.60
2019-03-10T21:56:17.576Z,89.10
2019-03-10T21:59:02.568Z,88.80
2019-03-10T22:01:47.767Z,89.40
2019-03-10T22:04:33.334Z,88.90
2019-03-10T22:07:18.254Z,88.20
2019-03-10T22:10:06.623Z,88.00
2019-03-10T22:12:52.570Z,87.40
2019-03-10T22:15:41.893Z,88.70
2019-03-10T22:18:25.156Z,89.40
2019-03-10T22:21:11.979Z,89.90
2019-03-10T22:23:59.601Z,90.00
2019-03-10T22:26:44.137Z,90.20
2019-03-10T22:29:29.531Z,90.30
2019-03-10T22:32:15.090Z,90.50
2019-03-10T22:35:00.402Z,90.50
2019-03-10T22:37:45.915Z,90.60
2019-03-10T22:40:31.017Z,90.60
2019-03-10T22:43:16.435Z,91.00
2019-03-10T22:46:01.541Z,90.90
2019-03-10T22:48:46.499Z,90.90
2019-03-10T22:51:31.305Z,91.00
2019-03-10T22:54:16.568Z,90.90
2019-03-10T22:57:34.510Z,90.70
2019-03-10T23:00:24.599Z,90.90
2019-03-10T23:03:10.045Z,90.90
2019-03-10T23:05:55.558Z,91.10
2019-03-10T23:08:40.367Z,91.20
2019-03-10T23:11:25.317Z,91.20
2019-03-10T23:14:10.350Z,91.40
2019-03-10T23:16:56.058Z,91.40
2019-03-10T23:19:41.325Z,91.50
2019-03-10T23:22:26.980Z,91.60
2019-03-10T23:25:13.013Z,91.70
2019-03-10T23:27:58.266Z,91.80
2019-03-10T23:30:43.291Z,91.90
2019-03-10T23:33:28.231Z,91.60
2019-03-10T23:36:13.364Z,91.50
2019-03-10T23:38:58.514Z,91.40
2019-03-10T23:41:43.770Z,91.30
2019-03-10T23:44:29.222Z,91.20
2019-03-10T23:47:14.576Z,91.10
2019-03-10T23:49:59.762Z,91.10
2019-03-10T23:52:45.066Z,90.90
2019-03-10T23:55:32.486Z,90.90
2019-03-10T23:58:17.577Z,90.90
